createdAt,value
2019-03-18T00:00:56.601Z,2.00
2019-03-18T00:03:27.455Z,1.87
2019-03-18T00:05:58.233Z,2.00
2019-03-18T00:08:29.033Z,2.07
2019-03-18T00:10:59.762Z,2.00
2019-03-18T00:13:30.602Z,2.20
2019-03-18T00:16:01.426Z,2.07
2019-03-18T00:18:32.300Z,2.10
2019-03-18T00:21:03.100Z,2.10
2019-03-18T00:23:33.937Z,2.23
2019-03-18T00:26:04.664Z,2.30
2019-03-18T00:28:35.411Z,2.57
2019-03-18T00:31:06.245Z,2.73
2019-03-18T00:33:37.092Z,2.60
2019-03-18T00:36:07.910Z,2.63
2019-03-18T00:38:38.637Z,3.13
2019-03-18T00:41:09.412Z,3.00
2019-03-18T00:43:40.252Z,2.70
2019-03-18T00:46:11.046Z,3.30
2019-03-18T00:48:41.887Z,3.00
2019-03-18T00:51:12.735Z,3.03
2019-03-18T00:53:43.106Z,2.80
2019-03-18T00:56:13.888Z,3.23
2019-03-18T00:58:44.640Z,3.20
2019-03-18T01:01:15.301Z,3.57
2019-03-18T01:03:46.086Z,3.60
2019-03-18T01:06:16.919Z,3.57
2019-03-18T01:08:47.659Z,3.53
2019-03-18T01:11:18.508Z,3.60
2019-03-18T01:13:49.321Z,3.37
2019-03-18T01:16:20.059Z,3.77
2019-03-18T01:18:50.793Z,3.43
2019-03-18T01:21:21.631Z,3.87
2019-03-18T01:23:52.361Z,4.00
2019-03-18T01:26:23.323Z,4.07
2019-03-18T01:28:54.167Z,3.90
2019-03-18T01:31:25.006Z,3.77
2019-03-18T01:33:55.847Z,4.17
2019-03-18T01:36:26.269Z,3.83
2019-03-18T01:38:56.970Z,3.90
2019-03-18T01:41:27.726Z,3.60
2019-03-18T01:43:58.574Z,3.30
2019-03-18T01:46:29.316Z,3.53
2019-03-18T01:49:00.132Z,3.47
2019-03-18T01:51:30.969Z,3.37
2019-03-18T01:54:01.551Z,3.10
2019-03-18T01:56:32.434Z,3.77
2019-03-18T01:59:03.355Z,3.40
2019-03-18T02:01:34.018Z,3.50
2019-03-18T02:04:04.855Z,3.50
2019-03-18T02:06:35.586Z,3.33
2019-03-18T02:09:06.672Z,3.73
2019-03-18T02:11:37.467Z,3.70
2019-03-18T02:14:08.312Z,3.67
2019-03-18T02:16:39.247Z,4.10
2019-03-18T02:19:09.974Z,3.87
2019-03-18T02:21:40.804Z,3.60
2019-03-18T02:24:11.183Z,4.00
2019-03-18T02:26:42.069Z,3.90
2019-03-18T02:29:12.921Z,4.10
2019-03-18T02:31:43.742Z,4.03
2019-03-18T02:34:14.779Z,4.20
2019-03-18T02:36:45.632Z,4.43
2019-03-18T02:39:16.357Z,4.27
2019-03-18T02:41:47.092Z,4.20
2019-03-18T02:44:17.819Z,3.83
2019-03-18T02:46:48.545Z,4.10
2019-03-18T02:49:19.294Z,4.03
2019-03-18T02:51:52.921Z,4.47
2019-03-18T02:54:22.624Z,4.50
2019-03-18T02:56:53.435Z,4.10
2019-03-18T02:59:24.187Z,4.10
2019-03-18T03:01:55.127Z,4.10
2019-03-18T03:04:25.534Z,3.97
2019-03-18T03:06:56.284Z,4.43
2019-03-18T03:09:26.797Z,5.03
2019-03-18T03:11:57.320Z,4.43
2019-03-18T03:14:28.165Z,4.60
2019-03-18T03:16:58.999Z,4.03
2019-03-18T03:19:29.849Z,4.17
2019-03-18T03:22:00.786Z,4.40
2019-03-18T03:24:31.602Z,4.73
2019-03-18T03:27:02.460Z,4.10
2019-03-18T03:29:33.181Z,4.90
2019-03-18T03:32:04.019Z,4.50
2019-03-18T03:34:34.857Z,4.13
2019-03-18T03:37:05.604Z,4.43
2019-03-18T03:39:36.422Z,4.13
2019-03-18T03:42:07.279Z,4.17
2019-03-18T03:44:38.125Z,4.37
2019-03-18T03:47:08.512Z,4.10
2019-03-18T03:49:40.106Z,4.73
2019-03-18T03:52:10.908Z,4.00
2019-03-18T03:54:41.760Z,4.00
2019-03-18T03:57:12.263Z,4.07
2019-03-18T03:59:42.941Z,4.20
2019-03-18T04:02:13.640Z,4.17
2019-03-18T04:04:44.375Z,4.47
2019-03-18T04:07:15.224Z,4.10
2019-03-18T04:09:46.049Z,4.23
2019-03-18T04:12:16.790Z,3.90
2019-03-18T04:14:47.520Z,4.03
2019-03-18T04:17:18.242Z,3.97
2019-03-18T04:19:48.995Z,3.67
2019-03-18T04:22:19.723Z,4.40
2019-03-18T04:24:50.216Z,4.70
2019-03-18T04:27:24.581Z,4.20
2019-03-18T04:29:53.555Z,4.00
2019-03-18T04:32:24.297Z,3.80
2019-03-18T04:34:55.134Z,3.80
2019-03-18T04:37:25.524Z,4.13
2019-03-18T04:39:56.296Z,4.30
2019-03-18T04:42:27.069Z,4.03
2019-03-18T04:44:57.484Z,4.03
2019-03-18T04:47:28.290Z,3.90
2019-03-18T04:49:59.169Z,4.10
2019-03-18T04:52:30.074Z,3.83
2019-03-18T04:55:00.799Z,3.90
2019-03-18T04:57:31.559Z,4.20
2019-03-18T05:00:02.402Z,3.90
2019-03-18T05:02:32.877Z,3.73
2019-03-18T05:05:03.837Z,3.97
2019-03-18T05:07:34.675Z,4.10
2019-03-18T05:10:10.219Z,3.93
2019-03-18T05:12:41.077Z,3.47
2019-03-18T05:15:12.036Z,3.97
2019-03-18T05:17:42.833Z,4.17
2019-03-18T05:20:13.246Z,4.30
2019-03-18T05:22:44.200Z,4.03
2019-03-18T05:25:15.057Z,3.77
2019-03-18T05:27:45.884Z,4.30
2019-03-18T05:30:16.634Z,4.07
2019-03-18T05:32:47.470Z,3.80
2019-03-18T05:35:18.296Z,3.83
2019-03-18T05:37:49.917Z,4.00
2019-03-18T05:40:20.813Z,3.97
2019-03-18T05:42:51.313Z,3.93
2019-03-18T05:45:22.272Z,3.97
2019-03-18T05:47:53.117Z,3.90
2019-03-18T05:50:23.925Z,3.90
2019-03-18T05:52:54.665Z,3.70
2019-03-18T05:55:25.363Z,4.17
2019-03-18T05:57:55.763Z,4.00
2019-03-18T06:00:28.551Z,4.13
2019-03-18T06:02:59.755Z,4.10
2019-03-18T06:05:30.692Z,4.20
2019-03-18T06:08:01.450Z,4.13
2019-03-18T06:10:32.388Z,4.70
2019-03-18T06:13:03.345Z,4.30
2019-03-18T06:15:34.237Z,4.00
2019-03-18T06:18:05.115Z,3.90
2019-03-18T06:20:38.403Z,4.10
2019-03-18T06:23:09.221Z,3.53
2019-03-18T06:25:40.135Z,4.60
2019-03-18T06:28:12.553Z,10.00
2019-03-18T06:30:43.361Z,6.47
2019-03-18T06:33:14.098Z,3.97
2019-03-18T06:35:45.571Z,3.53
2019-03-18T06:38:16.470Z,3.83
2019-03-18T06:40:47.317Z,4.30
2019-03-18T06:43:18.177Z,3.70
2019-03-18T06:45:48.991Z,3.80
2019-03-18T06:48:19.740Z,4.33
2019-03-18T06:50:50.460Z,3.87
2019-03-18T06:53:21.300Z,4.03
2019-03-18T06:55:52.192Z,3.63
2019-03-18T06:58:22.880Z,4.20
2019-03-18T07:00:53.599Z,3.50
2019-03-18T07:03:24.436Z,4.23
2019-03-18T07:05:55.284Z,4.20
2019-03-18T07:08:26.103Z,4.13
2019-03-18T07:10:56.847Z,3.77
2019-03-18T07:13:27.796Z,3.63
2019-03-18T07:16:00.162Z,3.87
2019-03-18T07:18:30.923Z,3.93
2019-03-18T07:21:01.814Z,4.03
2019-03-18T07:23:32.553Z,4.00
2019-03-18T07:26:03.419Z,4.10
2019-03-18T07:28:34.374Z,3.80
2019-03-18T07:31:05.188Z,3.73
2019-03-18T07:33:35.724Z,3.60
2019-03-18T07:36:06.602Z,3.80
2019-03-18T07:38:37.119Z,3.83
2019-03-18T07:41:07.911Z,3.80
2019-03-18T07:43:38.647Z,3.57
2019-03-18T07:46:09.530Z,4.23
2019-03-18T07:48:40.354Z,3.90
2019-03-18T07:51:11.130Z,5.70
2019-03-18T07:53:41.932Z,4.70
2019-03-18T07:56:12.336Z,3.40
2019-03-18T07:58:43.170Z,3.70
2019-03-18T08:01:16.991Z,3.33
2019-03-18T08:03:47.816Z,3.43
2019-03-18T08:06:18.642Z,3.17
2019-03-18T08:08:49.462Z,3.37
2019-03-18T08:11:20.339Z,3.77
2019-03-18T08:13:51.190Z,3.40
2019-03-18T08:16:21.633Z,3.87
2019-03-18T08:18:52.536Z,3.40
2019-03-18T08:21:23.020Z,3.70
2019-03-18T08:23:53.803Z,3.60
2019-03-18T08:26:27.083Z,3.80
2019-03-18T08:28:57.087Z,4.00
2019-03-18T08:31:27.493Z,3.63
2019-03-18T08:33:58.372Z,3.93
2019-03-18T08:36:29.183Z,4.07
2019-03-18T08:39:00.046Z,3.70
2019-03-18T08:41:30.890Z,3.53
2019-03-18T08:44:01.718Z,3.70
2019-03-18T08:46:32.524Z,3.60
2019-03-18T08:49:03.408Z,3.87
2019-03-18T08:51:34.302Z,4.17
2019-03-18T08:54:05.360Z,3.27
2019-03-18T08:56:39.175Z,3.30
2019-03-18T08:59:10.023Z,4.00
2019-03-18T09:01:40.847Z,3.13
2019-03-18T09:04:11.578Z,3.60
2019-03-18T09:06:41.955Z,3.10
2019-03-18T09:09:12.818Z,3.40
2019-03-18T09:11:43.584Z,3.30
2019-03-18T09:14:14.286Z,3.60
2019-03-18T09:16:45.029Z,3.30
2019-03-18T09:19:16.514Z,3.87
2019-03-18T09:21:47.452Z,3.60
2019-03-18T09:24:18.273Z,3.17
2019-03-18T09:27:01.466Z,3.53
2019-03-18T09:29:21.282Z,3.40
2019-03-18T09:31:52.524Z,3.33
2019-03-18T09:34:23.336Z,3.77
2019-03-18T09:36:54.172Z,3.93
2019-03-18T09:39:25.325Z,3.90
2019-03-18T09:41:56.160Z,3.67
2019-03-18T09:44:27.264Z,3.40
2019-03-18T09:46:58.255Z,3.13
2019-03-18T09:49:28.986Z,3.67
2019-03-18T09:51:59.813Z,3.27
2019-03-18T09:54:30.625Z,3.10
2019-03-18T09:57:01.428Z,3.10
2019-03-18T09:59:32.344Z,2.80
2019-03-18T10:02:03.171Z,2.83
2019-03-18T10:04:34.040Z,2.80
2019-03-18T10:07:04.841Z,3.20
2019-03-18T10:09:35.803Z,2.73
2019-03-18T10:12:06.677Z,2.77
2019-03-18T10:14:37.648Z,3.13
2019-03-18T10:17:09.853Z,3.23
2019-03-18T10:19:40.856Z,3.00
2019-03-18T10:22:11.590Z,3.20
2019-03-18T10:24:42.448Z,3.50
2019-03-18T10:27:13.163Z,3.23
2019-03-18T10:29:43.919Z,3.13
2019-03-18T10:32:14.657Z,3.40
2019-03-18T10:34:45.466Z,3.00
2019-03-18T10:37:16.325Z,3.17
2019-03-18T10:39:47.027Z,3.03
2019-03-18T10:42:17.411Z,3.00
2019-03-18T10:44:48.300Z,2.70
2019-03-18T10:47:19.044Z,2.90
2019-03-18T10:49:49.827Z,3.27
2019-03-18T10:52:20.745Z,2.90
2019-03-18T10:54:51.630Z,3.23
2019-03-18T10:57:22.011Z,2.57
2019-03-18T10:59:52.801Z,2.80
2019-03-18T11:02:23.567Z,3.13
2019-03-18T11:04:54.404Z,2.97
2019-03-18T11:07:25.211Z,3.13
2019-03-18T11:09:55.737Z,3.10
2019-03-18T11:12:26.570Z,3.40
2019-03-18T11:14:57.440Z,3.23
2019-03-18T11:17:28.232Z,3.83
2019-03-18T11:19:59.169Z,3.67
2019-03-18T11:22:29.744Z,3.50
2019-03-18T11:25:00.443Z,4.43
2019-03-18T11:27:31.181Z,4.10
2019-03-18T11:30:01.935Z,3.80
2019-03-18T11:32:32.775Z,3.43
2019-03-18T11:35:03.602Z,3.77
2019-03-18T11:37:33.992Z,3.93
2019-03-18T11:40:11.103Z,3.20
2019-03-18T11:42:42.775Z,3.67
2019-03-18T11:45:14.937Z,3.60
2019-03-18T11:47:45.687Z,3.47
2019-03-18T11:50:20.519Z,3.27
2019-03-18T11:52:51.333Z,3.10
2019-03-18T11:55:24.517Z,2.87
2019-03-18T11:57:55.485Z,3.00
2019-03-18T12:00:26.796Z,3.20
2019-03-18T12:02:57.256Z,3.13
2019-03-18T12:05:28.784Z,2.80
2019-03-18T12:07:59.883Z,3.00
2019-03-18T12:10:30.868Z,3.07
2019-03-18T12:13:02.816Z,3.33
2019-03-18T12:15:36.378Z,3.43
2019-03-18T12:18:06.763Z,2.77
2019-03-18T12:20:38.715Z,3.60
2019-03-18T12:23:10.424Z,3.13
2019-03-18T12:25:42.312Z,3.13
2019-03-18T12:28:13.742Z,2.63
2019-03-18T12:30:45.585Z,2.80
2019-03-18T12:33:17.167Z,2.90
2019-03-18T12:35:49.600Z,2.93
2019-03-18T12:38:21.328Z,3.13
2019-03-18T12:40:52.097Z,4.20
2019-03-18T12:43:24.499Z,3.37
2019-03-18T12:45:55.194Z,3.33
2019-03-18T12:48:25.932Z,3.20
2019-03-18T12:50:56.928Z,3.30
2019-03-18T12:53:27.935Z,3.60
2019-03-18T12:55:58.642Z,3.10
2019-03-18T12:58:29.516Z,3.43
2019-03-18T13:01:11.892Z,3.20
2019-03-18T13:03:32.599Z,2.90
2019-03-18T13:06:03.417Z,3.13
2019-03-18T13:08:34.183Z,3.10
2019-03-18T13:11:05.025Z,2.70
2019-03-18T13:13:35.842Z,2.47
2019-03-18T13:16:06.563Z,2.40
2019-03-18T13:18:37.305Z,2.13
2019-03-18T13:21:08.474Z,2.80
2019-03-18T13:23:39.379Z,2.37
2019-03-18T13:26:10.103Z,2.43
2019-03-18T13:28:40.938Z,2.97
2019-03-18T13:31:11.671Z,2.87
2019-03-18T13:33:42.439Z,2.77
2019-03-18T13:36:14.700Z,2.87
2019-03-18T13:38:45.533Z,3.43
2019-03-18T13:41:16.375Z,2.80
2019-03-18T13:43:47.232Z,2.87
2019-03-18T13:46:18.671Z,2.80
2019-03-18T13:48:49.205Z,2.83
2019-03-18T13:51:21.211Z,2.80
2019-03-18T13:53:52.223Z,3.27
2019-03-18T13:56:23.111Z,2.87
2019-03-18T13:58:53.636Z,3.47
2019-03-18T14:01:27.031Z,3.73
2019-03-18T14:03:57.504Z,3.70
2019-03-18T14:06:28.323Z,3.50
2019-03-18T14:08:59.172Z,3.70
2019-03-18T14:11:30.093Z,3.37
2019-03-18T14:14:01.108Z,3.27
2019-03-18T14:16:31.973Z,3.43
2019-03-18T14:19:02.960Z,3.20
2019-03-18T14:21:33.908Z,3.10
2019-03-18T14:24:04.722Z,2.50
2019-03-18T14:26:35.208Z,2.67
2019-03-18T14:29:05.739Z,3.40
2019-03-18T14:31:36.487Z,3.10
2019-03-18T14:34:07.183Z,2.60
2019-03-18T14:36:37.936Z,2.43
2019-03-18T14:39:08.796Z,2.60
2019-03-18T14:41:39.222Z,2.40
2019-03-18T14:44:10.041Z,2.50
2019-03-18T14:46:40.900Z,2.33
2019-03-18T14:49:11.826Z,2.53
2019-03-18T14:51:45.984Z,2.83
2019-03-18T14:54:14.916Z,2.30
2019-03-18T14:56:45.762Z,2.63
2019-03-18T14:59:24.500Z,2.90
2019-03-18T15:01:55.078Z,2.43
2019-03-18T15:04:25.593Z,2.87
2019-03-18T15:06:56.373Z,2.60
2019-03-18T15:09:27.108Z,2.93
2019-03-18T15:11:57.935Z,2.50
2019-03-18T15:14:28.789Z,2.63
2019-03-18T15:16:59.637Z,3.17
2019-03-18T15:19:30.373Z,2.70
2019-03-18T15:22:02.836Z,2.80
2019-03-18T15:24:33.800Z,2.53
2019-03-18T15:27:04.824Z,3.00
2019-03-18T15:29:38.312Z,2.60
2019-03-18T15:32:09.155Z,2.97
2019-03-18T15:34:39.866Z,3.00
2019-03-18T15:37:13.230Z,2.40
2019-03-18T15:39:44.053Z,2.43
2019-03-18T15:42:17.425Z,2.43
2019-03-18T15:44:50.961Z,2.70
2019-03-18T15:47:21.848Z,4.80
2019-03-18T15:49:55.514Z,4.90
2019-03-18T15:52:26.071Z,2.80
2019-03-18T15:54:56.851Z,2.90
2019-03-18T15:57:29.806Z,2.40
2019-03-18T16:00:00.190Z,2.20
2019-03-18T16:02:30.883Z,2.30
2019-03-18T16:05:01.592Z,2.43
2019-03-18T16:07:32.428Z,2.10
2019-03-18T16:10:03.671Z,1.97
2019-03-18T16:12:34.525Z,2.13
2019-03-18T16:15:07.731Z,2.40
2019-03-18T16:17:41.455Z,2.00
2019-03-18T16:20:20.028Z,2.47
2019-03-18T16:22:50.749Z,2.37
2019-03-18T16:25:21.628Z,2.60
2019-03-18T16:27:52.436Z,2.30
2019-03-18T16:30:23.298Z,2.43
2019-03-18T16:32:54.168Z,3.00
2019-03-18T16:35:24.603Z,2.50
2019-03-18T16:37:55.373Z,2.10
2019-03-18T16:40:26.247Z,2.40
2019-03-18T16:42:56.957Z,2.60
2019-03-18T16:45:27.394Z,2.47
2019-03-18T16:47:58.203Z,2.10
2019-03-18T16:50:30.777Z,2.17
2019-03-18T16:53:01.619Z,2.40
2019-03-18T16:55:32.362Z,2.33
2019-03-18T16:58:06.155Z,2.17
2019-03-18T17:00:36.898Z,3.00
2019-03-18T17:03:07.766Z,2.03
2019-03-18T17:05:38.505Z,2.30
2019-03-18T17:08:09.438Z,2.67
2019-03-18T17:10:43.073Z,2.53
2019-03-18T17:13:14.047Z,2.40
2019-03-18T17:15:44.917Z,5.70
2019-03-18T17:18:17.889Z,3.03
2019-03-18T17:20:48.927Z,2.70
2019-03-18T17:23:19.852Z,2.67
2019-03-18T17:25:50.306Z,3.03
2019-03-18T17:28:21.117Z,2.30
2019-03-18T17:30:51.960Z,1.80
2019-03-18T17:33:22.800Z,1.77
2019-03-18T17:35:53.520Z,1.70
2019-03-18T17:38:24.394Z,2.20
2019-03-18T17:40:55.192Z,2.30
2019-03-18T17:43:26.047Z,2.37
2019-03-18T17:45:56.868Z,2.30
2019-03-18T17:48:27.641Z,1.70
2019-03-18T17:50:58.436Z,1.63
2019-03-18T17:53:28.866Z,2.50
2019-03-18T17:55:59.675Z,1.70
2019-03-18T17:58:30.537Z,2.13
2019-03-18T18:01:03.152Z,2.10
2019-03-18T18:03:34.054Z,2.00
2019-03-18T18:06:14.725Z,2.40
2019-03-18T18:08:45.597Z,2.50
2019-03-18T18:11:16.446Z,2.70
2019-03-18T18:13:47.371Z,2.10
2019-03-18T18:16:18.300Z,2.13
2019-03-18T18:18:49.211Z,2.40
2019-03-18T18:21:19.983Z,11.83
2019-03-18T18:23:50.860Z,5.40
2019-03-18T18:26:21.925Z,2.40
2019-03-18T18:28:52.786Z,2.60
2019-03-18T18:31:23.537Z,2.50
2019-03-18T18:33:54.357Z,2.50
2019-03-18T18:36:25.487Z,2.87
2019-03-18T18:38:56.459Z,2.80
2019-03-18T18:41:27.165Z,2.63
2019-03-18T18:43:58.014Z,2.50
2019-03-18T18:46:28.441Z,2.50
2019-03-18T18:48:59.260Z,2.97
2019-03-18T18:51:29.988Z,2.90
2019-03-18T18:54:03.469Z,3.10
2019-03-18T18:56:33.564Z,3.17
2019-03-18T18:59:04.352Z,3.00
2019-03-18T19:01:37.848Z,2.80
2019-03-18T19:04:10.225Z,2.87
2019-03-18T19:06:41.065Z,3.23
2019-03-18T19:09:13.505Z,4.30
2019-03-18T19:11:44.366Z,3.27
2019-03-18T19:14:15.201Z,3.17
2019-03-18T19:16:46.147Z,3.40
2019-03-18T19:19:16.974Z,3.77
2019-03-18T19:21:48.118Z,5.77
2019-03-18T19:24:18.970Z,8.07
2019-03-18T19:26:49.359Z,2.43
2019-03-18T19:29:20.171Z,2.60
2019-03-18T19:31:50.956Z,2.57
2019-03-18T19:34:21.704Z,2.50
2019-03-18T19:36:53.199Z,2.80
2019-03-18T19:39:48.509Z,2.20
2019-03-18T19:42:19.285Z,2.37
2019-03-18T19:44:53.444Z,2.77
2019-03-18T19:47:24.500Z,2.40
2019-03-18T19:49:55.924Z,2.80
2019-03-18T19:52:26.723Z,2.60
2019-03-18T19:54:57.198Z,2.67
2019-03-18T19:57:27.979Z,2.63
2019-03-18T20:00:00.000Z,2.33
2019-03-18T20:02:31.428Z,2.50
2019-03-18T20:05:14.353Z,2.70
2019-03-18T20:07:36.462Z,2.90
2019-03-18T20:10:15.445Z,2.70
2019-03-18T20:12:45.958Z,3.60
2019-03-18T20:15:18.019Z,3.30
2019-03-18T20:17:48.823Z,3.50
2019-03-18T20:20:21.613Z,3.87
2019-03-18T20:22:52.575Z,3.77
2019-03-18T20:25:23.499Z,2.50
2019-03-18T20:27:54.327Z,3.20
2019-03-18T20:30:25.189Z,3.00
2019-03-18T20:32:55.785Z,2.50
2019-03-18T20:35:26.622Z,2.77
2019-03-18T20:37:57.482Z,3.33
2019-03-18T20:40:28.300Z,2.30
2019-03-18T20:43:02.543Z,2.30
2019-03-18T20:45:33.368Z,2.03
2019-03-18T20:48:04.303Z,2.50
2019-03-18T20:50:35.128Z,2.63
2019-03-18T20:53:06.002Z,2.73
2019-03-18T20:55:37.004Z,2.40
2019-03-18T20:58:11.122Z,2.83
2019-03-18T21:00:42.183Z,2.77
2019-03-18T21:03:12.999Z,3.10
2019-03-18T21:05:44.921Z,4.20
2019-03-18T21:08:15.693Z,3.53
2019-03-18T21:10:48.059Z,3.03
2019-03-18T21:13:18.796Z,2.80
2019-03-18T21:15:49.666Z,2.37
2019-03-18T21:18:20.649Z,2.70
2019-03-18T21:20:51.295Z,2.63
2019-03-18T21:23:22.147Z,2.60
2019-03-18T21:25:54.520Z,2.70
2019-03-18T21:28:25.469Z,2.90
2019-03-18T21:30:59.280Z,2.70
2019-03-18T21:33:33.426Z,3.37
2019-03-18T21:36:04.308Z,3.20
2019-03-18T21:38:37.750Z,2.73
2019-03-18T21:41:08.714Z,3.10
2019-03-18T21:43:39.578Z,2.70
2019-03-18T21:46:10.208Z,3.17
2019-03-18T21:48:40.945Z,3.40
2019-03-18T21:51:11.514Z,2.97
2019-03-18T21:53:42.025Z,3.17
2019-03-18T21:56:12.881Z,2.60
2019-03-18T21:58:46.136Z,2.30
2019-03-18T22:01:17.012Z,2.93
2019-03-18T22:03:47.909Z,2.93
2019-03-18T22:06:18.798Z,2.80
2019-03-18T22:08:49.503Z,3.00
2019-03-18T22:11:20.443Z,3.10
2019-03-18T22:13:51.412Z,3.23
2019-03-18T22:16:22.447Z,2.43
2019-03-18T22:18:53.382Z,3.07
2019-03-18T22:21:24.378Z,3.13
2019-03-18T22:23:55.030Z,4.00
2019-03-18T22:26:25.846Z,3.90
2019-03-18T22:28:56.727Z,2.77
2019-03-18T22:31:27.611Z,2.80
2019-03-18T22:33:58.531Z,2.13
2019-03-18T22:36:29.386Z,3.40
2019-03-18T22:39:00.135Z,2.77
2019-03-18T22:41:30.865Z,3.23
2019-03-18T22:44:01.751Z,2.97
2019-03-18T22:46:32.288Z,2.60
2019-03-18T22:49:03.127Z,2.47
2019-03-18T22:51:34.011Z,2.70
2019-03-18T22:54:04.875Z,2.50
2019-03-18T22:56:35.739Z,2.83
2019-03-18T22:59:06.507Z,2.93
2019-03-18T23:01:37.474Z,2.97
2019-03-18T23:04:08.305Z,2.80
2019-03-18T23:06:39.185Z,3.10
2019-03-18T23:09:09.892Z,2.87
2019-03-18T23:11:40.736Z,2.90
2019-03-18T23:14:11.462Z,2.70
2019-03-18T23:16:42.501Z,2.83
2019-03-18T23:19:13.236Z,3.60
2019-03-18T23:21:44.047Z,2.83
2019-03-18T23:24:14.898Z,2.93
2019-03-18T23:26:45.947Z,3.20
2019-03-18T23:29:16.897Z,3.00
2019-03-18T23:31:49.258Z,3.03
2019-03-18T23:34:20.080Z,3.50
2019-03-18T23:36:51.038Z,3.17
2019-03-18T23:39:21.910Z,3.13
2019-03-18T23:41:52.693Z,3.53
2019-03-18T23:44:23.530Z,3.40
2019-03-18T23:46:53.934Z,2.90
2019-03-18T23:49:24.792Z,3.70
2019-03-18T23:51:55.620Z,2.40
2019-03-18T23:54:26.468Z,2.97
2019-03-18T23:56:57.202Z,3.03
2019-03-18T23:59:27.992Z,2.73
